sensor_id;sensor_type;location;lat;lon;timestamp;temperature;humidity
16229;DHT22;8222;51.462;12.630;2022-08-06T00:01:36;19.00;99.90
16229;DHT22;8222;51.462;12.630;2022-08-06T00:04:02;18.90;99.90
16229;DHT22;8222;51.462;12.630;2022-08-06T00:06:28;19.00;99.90
16229;DHT22;8222;51.462;12.630;2022-08-06T00:08:54;18.90;99.90
16229;DHT22;8222;51.462;12.630;2022-08-06T00:11:20;18.80;99.90
16229;DHT22;8222;51.462;12.630;2022-08-06T00:13:46;18.70;99.90
16229;DHT22;8222;51.462;12.630;2022-08-06T00:16:11;18.70;99.90
16229;DHT22;8222;51.462;12.630;2022-08-06T00:18:37;18.70;99.90
16229;DHT22;8222;51.462;12.630;2022-08-06T00:21:03;18.50;99.90
16229;DHT22;8222;51.462;12.630;2022-08-06T00:23:29;18.50;99.90
16229;DHT22;8222;51.462;12.630;2022-08-06T00:25:54;18.60;99.90
16229;DHT22;8222;51.462;12.630;2022-08-06T00:28:22;18.40;99.90
16229;DHT22;8222;51.462;12.630;2022-08-06T00:30:48;18.40;99.90
16229;DHT22;8222;51.462;12.630;2022-08-06T00:33:14;18.30;99.90
16229;DHT22;8222;51.462;12.630;2022-08-06T00:35:39;18.30;99.90
16229;DHT22;8222;51.462;12.630;2022-08-06T00:38:05;18.20;99.90
16229;DHT22;8222;51.462;12.630;2022-08-06T00:40:31;18.10;99.90
16229;DHT22;8222;51.462;12.630;2022-08-06T00:43:00;18.10;99.90
16229;DHT22;8222;51.462;12.630;2022-08-06T00:45:26;18.00;99.90
16229;DHT22;8222;51.462;12.630;2022-08-06T00:47:52;17.90;99.90
16229;DHT22;8222;51.462;12.630;2022-08-06T00:50:18;17.80;99.90
16229;DHT22;8222;51.462;12.630;2022-08-06T00:52:44;17.90;99.90
16229;DHT22;8222;51.462;12.630;2022-08-06T00:55:11;17.90;99.90
16229;DHT22;8222;51.462;12.630;2022-08-06T00:57:37;17.90;99.90
16229;DHT22;8222;51.462;12.630;2022-08-06T01:00:05;17.80;99.90
16229;DHT22;8222;51.462;12.630;2022-08-06T01:02:31;17.80;99.90
16229;DHT22;8222;51.462;12.630;2022-08-06T01:04:57;17.70;99.90
16229;DHT22;8222;51.462;12.630;2022-08-06T01:07:22;17.70;99.90
16229;DHT22;8222;51.462;12.630;2022-08-06T01:09:48;17.80;99.90
16229;DHT22;8222;51.462;12.630;2022-08-06T01:12:15;17.70;99.90
16229;DHT22;8222;51.462;12.630;2022-08-06T01:14:42;17.70;99.90
16229;DHT22;8222;51.462;12.630;2022-08-06T01:17:19;17.70;99.90
16229;DHT22;8222;51.462;12.630;2022-08-06T01:19:56;17.60;99.90
16229;DHT22;8222;51.462;12.630;2022-08-06T01:22:32;17.60;99.90
16229;DHT22;8222;51.462;12.630;2022-08-06T01:30:28;17.50;99.90
16229;DHT22;8222;51.462;12.630;2022-08-06T01:35:33;17.40;99.90
16229;DHT22;8222;51.462;12.630;2022-08-06T01:38:05;17.40;99.90
16229;DHT22;8222;51.462;12.630;2022-08-06T01:40:34;17.30;99.90
16229;DHT22;8222;51.462;12.630;2022-08-06T01:43:03;17.20;99.90
16229;DHT22;8222;51.462;12.630;2022-08-06T01:45:33;17.20;99.90
16229;DHT22;8222;51.462;12.630;2022-08-06T01:48:03;17.30;99.90
16229;DHT22;8222;51.462;12.630;2022-08-06T01:50:33;17.20;99.90
16229;DHT22;8222;51.462;12.630;2022-08-06T01:53:02;17.10;99.90
16229;DHT22;8222;51.462;12.630;2022-08-06T01:55:32;17.00;99.90
16229;DHT22;8222;51.462;12.630;2022-08-06T01:58:01;16.90;99.90
16229;DHT22;8222;51.462;12.630;2022-08-06T02:00:29;16.90;99.90
16229;DHT22;8222;51.462;12.630;2022-08-06T02:02:59;16.80;99.90
16229;DHT22;8222;51.462;12.630;2022-08-06T02:05:27;16.70;99.90
16229;DHT22;8222;51.462;12.630;2022-08-06T02:07:54;16.80;99.90
16229;DHT22;8222;51.462;12.630;2022-08-06T02:10:22;16.80;99.90
16229;DHT22;8222;51.462;12.630;2022-08-06T02:12:48;16.80;99.90
16229;DHT22;8222;51.462;12.630;2022-08-06T02:15:20;16.80;99.90
16229;DHT22;8222;51.462;12.630;2022-08-06T02:17:50;16.90;99.90
16229;DHT22;8222;51.462;12.630;2022-08-06T02:20:19;16.90;99.90
16229;DHT22;8222;51.462;12.630;2022-08-06T02:22:46;16.90;99.90
16229;DHT22;8222;51.462;12.630;2022-08-06T02:25:13;16.90;99.90
16229;DHT22;8222;51.462;12.630;2022-08-06T02:27:46;16.90;99.90
16229;DHT22;8222;51.462;12.630;2022-08-06T02:30:12;16.80;99.90
16229;DHT22;8222;51.462;12.630;2022-08-06T02:32:39;16.80;99.90
16229;DHT22;8222;51.462;12.630;2022-08-06T02:35:05;16.80;99.90
16229;DHT22;8222;51.462;12.630;2022-08-06T02:37:39;16.80;99.90
16229;DHT22;8222;51.462;12.630;2022-08-06T02:40:14;16.70;99.90
16229;DHT22;8222;51.462;12.630;2022-08-06T02:43:04;16.70;99.90
16229;DHT22;8222;51.462;12.630;2022-08-06T02:45:38;16.60;99.90
16229;DHT22;8222;51.462;12.630;2022-08-06T02:50:38;16.70;99.90
16229;DHT22;8222;51.462;12.630;2022-08-06T02:53:11;16.70;99.90
16229;DHT22;8222;51.462;12.630;2022-08-06T02:55:43;16.60;99.90
16229;DHT22;8222;51.462;12.630;2022-08-06T02:58:32;16.50;99.90
16229;DHT22;8222;51.462;12.630;2022-08-06T03:00:59;16.50;99.90
16229;DHT22;8222;51.462;12.630;2022-08-06T03:03:27;16.40;99.90
16229;DHT22;8222;51.462;12.630;2022-08-06T03:05:55;16.40;99.90
16229;DHT22;8222;51.462;12.630;2022-08-06T03:08:23;16.40;99.90
16229;DHT22;8222;51.462;12.630;2022-08-06T03:10:52;16.40;99.90
16229;DHT22;8222;51.462;12.630;2022-08-06T03:13:19;16.30;99.90
16229;DHT22;8222;51.462;12.630;2022-08-06T03:15:47;16.40;99.90
16229;DHT22;8222;51.462;12.630;2022-08-06T03:18:15;16.30;99.90
16229;DHT22;8222;51.462;12.630;2022-08-06T03:20:42;16.20;99.90
16229;DHT22;8222;51.462;12.630;2022-08-06T03:23:09;16.10;99.90
16229;DHT22;8222;51.462;12.630;2022-08-06T03:25:38;16.10;99.90
16229;DHT22;8222;51.462;12.630;2022-08-06T03:28:05;16.00;99.90
16229;DHT22;8222;51.462;12.630;2022-08-06T03:30:32;15.90;99.90
16229;DHT22;8222;51.462;12.630;2022-08-06T03:33:04;15.90;99.90
16229;DHT22;8222;51.462;12.630;2022-08-06T03:35:33;15.90;99.90
16229;DHT22;8222;51.462;12.630;2022-08-06T03:37:59;16.00;99.90
16229;DHT22;8222;51.462;12.630;2022-08-06T03:40:26;16.00;99.90
16229;DHT22;8222;51.462;12.630;2022-08-06T03:42:52;16.00;99.90
16229;DHT22;8222;51.462;12.630;2022-08-06T03:45:19;16.00;99.90
16229;DHT22;8222;51.462;12.630;2022-08-06T03:47:50;16.10;99.90
16229;DHT22;8222;51.462;12.630;2022-08-06T03:50:21;16.10;99.90
16229;DHT22;8222;51.462;12.630;2022-08-06T03:52:54;16.00;99.90
16229;DHT22;8222;51.462;12.630;2022-08-06T03:55:24;16.00;99.90
16229;DHT22;8222;51.462;12.630;2022-08-06T03:57:55;16.00;99.90
16229;DHT22;8222;51.462;12.630;2022-08-06T04:00:24;15.90;99.90
16229;DHT22;8222;51.462;12.630;2022-08-06T04:02:52;15.90;99.90
16229;DHT22;8222;51.462;12.630;2022-08-06T04:05:20;15.90;99.90
16229;DHT22;8222;51.462;12.630;2022-08-06T04:07:48;16.00;99.90
16229;DHT22;8222;51.462;12.630;2022-08-06T04:10:17;16.00;99.90
16229;DHT22;8222;51.462;12.630;2022-08-06T04:12:44;15.90;99.90
16229;DHT22;8222;51.462;12.630;2022-08-06T04:15:12;15.90;99.90
16229;DHT22;8222;51.462;12.630;2022-08-06T04:17:39;16.00;99.90
16229;DHT22;8222;51.462;12.630;2022-08-06T04:20:11;15.90;99.90
16229;DHT22;8222;51.462;12.630;2022-08-06T04:22:39;15.90;99.90
16229;DHT22;8222;51.462;12.630;2022-08-06T04:25:05;15.90;99.90
16229;DHT22;8222;51.462;12.630;2022-08-06T04:27:31;15.90;99.90
16229;DHT22;8222;51.462;12.630;2022-08-06T04:29:59;16.00;99.90
16229;DHT22;8222;51.462;12.630;2022-08-06T04:32:26;16.20;99.90
16229;DHT22;8222;51.462;12.630;2022-08-06T04:34:54;16.30;99.90
16229;DHT22;8222;51.462;12.630;2022-08-06T04:37:20;16.40;99.90
16229;DHT22;8222;51.462;12.630;2022-08-06T04:39:46;16.50;99.90
16229;DHT22;8222;51.462;12.630;2022-08-06T04:42:12;16.50;99.90
16229;DHT22;8222;51.462;12.630;2022-08-06T04:44:39;16.60;99.90
16229;DHT22;8222;51.462;12.630;2022-08-06T04:47:05;16.70;99.90
16229;DHT22;8222;51.462;12.630;2022-08-06T04:49:31;17.20;99.90
16229;DHT22;8222;51.462;12.630;2022-08-06T04:51:57;17.40;99.90
16229;DHT22;8222;51.462;12.630;2022-08-06T04:54:23;17.70;99.90
16229;DHT22;8222;51.462;12.630;2022-08-06T04:56:48;18.00;99.90
16229;DHT22;8222;51.462;12.630;2022-08-06T04:59:14;18.30;99.90
16229;DHT22;8222;51.462;12.630;2022-08-06T05:01:40;18.50;99.90
16229;DHT22;8222;51.462;12.630;2022-08-06T05:04:06;18.70;99.90
16229;DHT22;8222;51.462;12.630;2022-08-06T05:06:44;18.80;99.90
16229;DHT22;8222;51.462;12.630;2022-08-06T05:09:16;18.80;99.90
16229;DHT22;8222;51.462;12.630;2022-08-06T05:11:47;18.80;99.90
16229;DHT22;8222;51.462;12.630;2022-08-06T05:14:18;18.80;99.90
16229;DHT22;8222;51.462;12.630;2022-08-06T05:16:46;18.60;99.90
16229;DHT22;8222;51.462;12.630;2022-08-06T05:19:23;18.30;99.90
16229;DHT22;8222;51.462;12.630;2022-08-06T05:21:51;18.20;99.90
16229;DHT22;8222;51.462;12.630;2022-08-06T05:24:18;17.80;99.90
16229;DHT22;8222;51.462;12.630;2022-08-06T05:26:44;17.70;99.90
16229;DHT22;8222;51.462;12.630;2022-08-06T05:29:09;17.70;99.90
16229;DHT22;8222;51.462;12.630;2022-08-06T05:31:37;17.70;99.90
16229;DHT22;8222;51.462;12.630;2022-08-06T05:34:09;17.70;99.90
16229;DHT22;8222;51.462;12.630;2022-08-06T05:36:34;17.70;99.90
16229;DHT22;8222;51.462;12.630;2022-08-06T05:39:00;17.70;99.90
16229;DHT22;8222;51.462;12.630;2022-08-06T05:41:26;17.70;99.90
16229;DHT22;8222;51.462;12.630;2022-08-06T05:43:54;17.70;99.90
16229;DHT22;8222;51.462;12.630;2022-08-06T05:46:22;17.70;99.90
16229;DHT22;8222;51.462;12.630;2022-08-06T05:49:00;17.90;99.90
16229;DHT22;8222;51.462;12.630;2022-08-06T05:54:21;18.00;99.90
16229;DHT22;8222;51.462;12.630;2022-08-06T05:56:49;18.10;99.90
16229;DHT22;8222;51.462;12.630;2022-08-06T05:59:23;18.40;99.90
16229;DHT22;8222;51.462;12.630;2022-08-06T06:01:50;18.80;99.90
16229;DHT22;8222;51.462;12.630;2022-08-06T06:04:16;18.70;99.90
16229;DHT22;8222;51.462;12.630;2022-08-06T06:06:44;18.40;99.90
16229;DHT22;8222;51.462;12.630;2022-08-06T06:09:10;18.10;99.90
16229;DHT22;8222;51.462;12.630;2022-08-06T06:11:39;18.10;99.90
16229;DHT22;8222;51.462;12.630;2022-08-06T06:14:08;18.20;99.90
16229;DHT22;8222;51.462;12.630;2022-08-06T06:16:50;18.30;99.90
16229;DHT22;8222;51.462;12.630;2022-08-06T06:22:19;18.10;99.90
16229;DHT22;8222;51.462;12.630;2022-08-06T06:24:57;18.00;99.90
16229;DHT22;8222;51.462;12.630;2022-08-06T06:27:50;18.10;99.90
16229;DHT22;8222;51.462;12.630;2022-08-06T06:30:23;18.20;99.90
16229;DHT22;8222;51.462;12.630;2022-08-06T06:36:00;18.30;99.90
16229;DHT22;8222;51.462;12.630;2022-08-06T06:38:42;18.30;99.90
16229;DHT22;8222;51.462;12.630;2022-08-06T06:41:43;18.40;99.90
16229;DHT22;8222;51.462;12.630;2022-08-06T06:44:24;18.40;99.90
16229;DHT22;8222;51.462;12.630;2022-08-06T06:47:45;18.40;99.90
16229;DHT22;8222;51.462;12.630;2022-08-06T06:50:13;18.60;99.90
16229;DHT22;8222;51.462;12.630;2022-08-06T06:52:43;18.80;99.90
16229;DHT22;8222;51.462;12.630;2022-08-06T06:55:14;18.70;99.90
16229;DHT22;8222;51.462;12.630;2022-08-06T06:57:45;18.80;99.90
16229;DHT22;8222;51.462;12.630;2022-08-06T07:00:12;18.90;99.90
16229;DHT22;8222;51.462;12.630;2022-08-06T07:02:40;19.00;99.90
16229;DHT22;8222;51.462;12.630;2022-08-06T07:05:09;19.20;99.90
16229;DHT22;8222;51.462;12.630;2022-08-06T07:07:39;19.10;99.90
16229;DHT22;8222;51.462;12.630;2022-08-06T07:10:08;19.00;99.90
16229;DHT22;8222;51.462;12.630;2022-08-06T07:12:35;19.60;99.90
16229;DHT22;8222;51.462;12.630;2022-08-06T07:15:06;19.60;99.90
16229;DHT22;8222;51.462;12.630;2022-08-06T07:17:33;19.30;99.90
16229;DHT22;8222;51.462;12.630;2022-08-06T07:20:04;19.30;99.90
16229;DHT22;8222;51.462;12.630;2022-08-06T07:22:35;19.40;99.90
16229;DHT22;8222;51.462;12.630;2022-08-06T07:25:03;19.50;99.90
16229;DHT22;8222;51.462;12.630;2022-08-06T07:27:48;19.50;99.90
16229;DHT22;8222;51.462;12.630;2022-08-06T07:30:16;19.70;99.90
16229;DHT22;8222;51.462;12.630;2022-08-06T07:32:44;19.90;99.90
16229;DHT22;8222;51.462;12.630;2022-08-06T07:35:11;19.70;99.90
16229;DHT22;8222;51.462;12.630;2022-08-06T07:37:41;19.60;99.90
16229;DHT22;8222;51.462;12.630;2022-08-06T07:40:10;19.40;99.90
16229;DHT22;8222;51.462;12.630;2022-08-06T07:42:40;19.60;99.90
16229;DHT22;8222;51.462;12.630;2022-08-06T07:45:08;19.70;99.90
16229;DHT22;8222;51.462;12.630;2022-08-06T07:47:41;19.70;99.90
16229;DHT22;8222;51.462;12.630;2022-08-06T07:50:11;19.70;99.90
16229;DHT22;8222;51.462;12.630;2022-08-06T07:52:39;20.00;99.90
16229;DHT22;8222;51.462;12.630;2022-08-06T07:55:07;20.00;99.90
16229;DHT22;8222;51.462;12.630;2022-08-06T07:57:33;20.10;99.90
16229;DHT22;8222;51.462;12.630;2022-08-06T08:00:00;20.00;99.90
16229;DHT22;8222;51.462;12.630;2022-08-06T08:02:26;20.20;99.90
16229;DHT22;8222;51.462;12.630;2022-08-06T08:04:53;20.20;99.90
16229;DHT22;8222;51.462;12.630;2022-08-06T08:07:38;20.40;99.90
16229;DHT22;8222;51.462;12.630;2022-08-06T08:10:04;20.60;99.90
16229;DHT22;8222;51.462;12.630;2022-08-06T08:12:31;20.60;99.90
16229;DHT22;8222;51.462;12.630;2022-08-06T08:14:58;20.50;99.90
16229;DHT22;8222;51.462;12.630;2022-08-06T08:17:24;20.50;99.90
16229;DHT22;8222;51.462;12.630;2022-08-06T08:19:49;20.80;99.90
16229;DHT22;8222;51.462;12.630;2022-08-06T08:22:17;20.60;99.90
16229;DHT22;8222;51.462;12.630;2022-08-06T08:24:45;20.70;99.90
16229;DHT22;8222;51.462;12.630;2022-08-06T08:27:11;20.80;99.90
16229;DHT22;8222;51.462;12.630;2022-08-06T08:29:38;21.00;99.90
16229;DHT22;8222;51.462;12.630;2022-08-06T08:32:05;21.00;99.90
16229;DHT22;8222;51.462;12.630;2022-08-06T08:34:31;21.20;99.90
16229;DHT22;8222;51.462;12.630;2022-08-06T08:36:58;21.30;99.90
16229;DHT22;8222;51.462;12.630;2022-08-06T08:39:23;21.60;99.90
16229;DHT22;8222;51.462;12.630;2022-08-06T08:41:52;21.80;99.90
16229;DHT22;8222;51.462;12.630;2022-08-06T08:44:24;21.80;99.90
16229;DHT22;8222;51.462;12.630;2022-08-06T08:46:51;21.70;99.90
16229;DHT22;8222;51.462;12.630;2022-08-06T08:49:25;21.40;99.90
16229;DHT22;8222;51.462;12.630;2022-08-06T08:51:53;21.10;99.90
16229;DHT22;8222;51.462;12.630;2022-08-06T08:54:22;21.30;99.90
16229;DHT22;8222;51.462;12.630;2022-08-06T08:56:49;21.40;99.90
16229;DHT22;8222;51.462;12.630;2022-08-06T08:59:15;21.60;99.90
16229;DHT22;8222;51.462;12.630;2022-08-06T09:01:41;21.70;99.90
16229;DHT22;8222;51.462;12.630;2022-08-06T09:04:07;21.80;99.90
16229;DHT22;8222;51.462;12.630;2022-08-06T09:06:36;21.80;99.90
16229;DHT22;8222;51.462;12.630;2022-08-06T09:09:04;22.30;99.90
16229;DHT22;8222;51.462;12.630;2022-08-06T09:11:34;22.30;99.90
16229;DHT22;8222;51.462;12.630;2022-08-06T09:14:04;22.10;99.90
16229;DHT22;8222;51.462;12.630;2022-08-06T09:16:32;21.90;99.90
16229;DHT22;8222;51.462;12.630;2022-08-06T09:18:58;21.80;99.90
16229;DHT22;8222;51.462;12.630;2022-08-06T09:21:24;22.00;99.90
16229;DHT22;8222;51.462;12.630;2022-08-06T09:23:50;22.30;99.90
16229;DHT22;8222;51.462;12.630;2022-08-06T09:26:15;22.40;99.90
16229;DHT22;8222;51.462;12.630;2022-08-06T09:28:43;22.60;99.90
16229;DHT22;8222;51.462;12.630;2022-08-06T09:31:20;22.80;99.90
16229;DHT22;8222;51.462;12.630;2022-08-06T09:34:04;23.20;99.90
16229;DHT22;8222;51.462;12.630;2022-08-06T09:36:42;23.40;99.50
16229;DHT22;8222;51.462;12.630;2022-08-06T09:39:08;23.00;97.50
16229;DHT22;8222;51.462;12.630;2022-08-06T09:41:34;22.60;99.90
16229;DHT22;8222;51.462;12.630;2022-08-06T09:44:09;22.70;99.90
16229;DHT22;8222;51.462;12.630;2022-08-06T09:49:02;23.40;99.90
16229;DHT22;8222;51.462;12.630;2022-08-06T09:51:28;23.90;98.70
16229;DHT22;8222;51.462;12.630;2022-08-06T09:53:58;24.00;97.70
16229;DHT22;8222;51.462;12.630;2022-08-06T09:56:25;23.90;98.30
16229;DHT22;8222;51.462;12.630;2022-08-06T09:59:00;23.90;95.40
16229;DHT22;8222;51.462;12.630;2022-08-06T10:01:28;24.00;94.00
16229;DHT22;8222;51.462;12.630;2022-08-06T10:03:55;24.00;92.60
16229;DHT22;8222;51.462;12.630;2022-08-06T10:06:21;23.80;92.00
16229;DHT22;8222;51.462;12.630;2022-08-06T10:08:49;24.30;92.20
16229;DHT22;8222;51.462;12.630;2022-08-06T10:11:15;24.80;84.50
16229;DHT22;8222;51.462;12.630;2022-08-06T10:13:56;24.90;83.70
16229;DHT22;8222;51.462;12.630;2022-08-06T10:16:22;24.60;86.70
16229;DHT22;8222;51.462;12.630;2022-08-06T10:18:57;23.90;86.50
16229;DHT22;8222;51.462;12.630;2022-08-06T10:21:32;23.30;87.40
16229;DHT22;8222;51.462;12.630;2022-08-06T10:24:01;23.20;89.50
16229;DHT22;8222;51.462;12.630;2022-08-06T10:26:30;23.50;90.00
16229;DHT22;8222;51.462;12.630;2022-08-06T10:29:06;24.00;86.90
16229;DHT22;8222;51.462;12.630;2022-08-06T10:31:34;24.40;85.60
16229;DHT22;8222;51.462;12.630;2022-08-06T10:36:54;24.60;82.20
16229;DHT22;8222;51.462;12.630;2022-08-06T10:39:26;24.40;81.30
16229;DHT22;8222;51.462;12.630;2022-08-06T10:41:55;24.30;80.30
16229;DHT22;8222;51.462;12.630;2022-08-06T10:44:22;24.60;77.70
16229;DHT22;8222;51.462;12.630;2022-08-06T10:46:51;24.50;77.00
16229;DHT22;8222;51.462;12.630;2022-08-06T10:49:19;23.90;76.00
16229;DHT22;8222;51.462;12.630;2022-08-06T10:51:47;23.50;77.90
16229;DHT22;8222;51.462;12.630;2022-08-06T10:54:14;23.20;78.50
16229;DHT22;8222;51.462;12.630;2022-08-06T10:56:40;23.30;79.00
16229;DHT22;8222;51.462;12.630;2022-08-06T10:59:06;23.80;79.50
16229;DHT22;8222;51.462;12.630;2022-08-06T11:04:52;24.40;76.80
16229;DHT22;8222;51.462;12.630;2022-08-06T11:16:04;24.20;72.40
16229;DHT22;8222;51.462;12.630;2022-08-06T11:18:31;24.30;72.50
16229;DHT22;8222;51.462;12.630;2022-08-06T11:20:57;24.40;71.50
16229;DHT22;8222;51.462;12.630;2022-08-06T11:23:30;24.20;73.50
16229;DHT22;8222;51.462;12.630;2022-08-06T11:25:58;24.50;73.60
16229;DHT22;8222;51.462;12.630;2022-08-06T11:31:01;24.30;73.20
16229;DHT22;8222;51.462;12.630;2022-08-06T11:36:00;24.50;74.70
16229;DHT22;8222;51.462;12.630;2022-08-06T11:46:27;24.40;73.90
16229;DHT22;8222;51.462;12.630;2022-08-06T11:56:34;25.30;69.80
16229;DHT22;8222;51.462;12.630;2022-08-06T11:59:15;25.30;69.20
16229;DHT22;8222;51.462;12.630;2022-08-06T12:01:47;25.50;68.30
16229;DHT22;8222;51.462;12.630;2022-08-06T12:09:42;25.10;71.60
16229;DHT22;8222;51.462;12.630;2022-08-06T12:14:54;24.70;71.80
16229;DHT22;8222;51.462;12.630;2022-08-06T12:17:25;24.60;71.80
16229;DHT22;8222;51.462;12.630;2022-08-06T12:19:54;24.90;70.80
16229;DHT22;8222;51.462;12.630;2022-08-06T12:22:22;25.20;71.70
16229;DHT22;8222;51.462;12.630;2022-08-06T12:24:53;25.50;68.60
16229;DHT22;8222;51.462;12.630;2022-08-06T12:27:21;25.40;67.70
16229;DHT22;8222;51.462;12.630;2022-08-06T12:29:47;25.60;68.20
16229;DHT22;8222;51.462;12.630;2022-08-06T12:32:30;25.50;65.30
16229;DHT22;8222;51.462;12.630;2022-08-06T12:34:58;25.80;67.90
16229;DHT22;8222;51.462;12.630;2022-08-06T12:37:40;25.70;65.60
16229;DHT22;8222;51.462;12.630;2022-08-06T12:40:09;25.30;66.70
16229;DHT22;8222;51.462;12.630;2022-08-06T12:42:54;24.90;69.10
16229;DHT22;8222;51.462;12.630;2022-08-06T12:45:33;24.70;67.80
16229;DHT22;8222;51.462;12.630;2022-08-06T12:48:07;24.70;68.80
16229;DHT22;8222;51.462;12.630;2022-08-06T12:50:35;24.80;68.80
16229;DHT22;8222;51.462;12.630;2022-08-06T12:55:27;25.00;65.60
16229;DHT22;8222;51.462;12.630;2022-08-06T12:57:54;24.90;66.70
16229;DHT22;8222;51.462;12.630;2022-08-06T13:00:20;25.20;68.10
16229;DHT22;8222;51.462;12.630;2022-08-06T13:02:48;25.50;66.50
16229;DHT22;8222;51.462;12.630;2022-08-06T13:05:14;25.30;63.20
16229;DHT22;8222;51.462;12.630;2022-08-06T13:07:41;25.30;63.40
16229;DHT22;8222;51.462;12.630;2022-08-06T13:10:11;25.00;64.90
16229;DHT22;8222;51.462;12.630;2022-08-06T13:12:37;25.20;66.30
16229;DHT22;8222;51.462;12.630;2022-08-06T13:15:14;25.30;63.30
16229;DHT22;8222;51.462;12.630;2022-08-06T13:17:40;25.10;63.60
16229;DHT22;8222;51.462;12.630;2022-08-06T13:20:07;24.90;64.40
16229;DHT22;8222;51.462;12.630;2022-08-06T13:22:50;25.10;66.60
16229;DHT22;8222;51.462;12.630;2022-08-06T13:25:16;25.20;66.90
16229;DHT22;8222;51.462;12.630;2022-08-06T13:27:42;25.30;66.20
16229;DHT22;8222;51.462;12.630;2022-08-06T13:30:09;25.20;65.20
16229;DHT22;8222;51.462;12.630;2022-08-06T13:32:35;25.00;63.70
16229;DHT22;8222;51.462;12.630;2022-08-06T13:35:04;24.90;64.30
16229;DHT22;8222;51.462;12.630;2022-08-06T13:37:50;24.90;64.70
16229;DHT22;8222;51.462;12.630;2022-08-06T13:40:17;25.00;63.30
16229;DHT22;8222;51.462;12.630;2022-08-06T13:42:50;25.30;64.80
16229;DHT22;8222;51.462;12.630;2022-08-06T13:47:45;25.50;62.90
16229;DHT22;8222;51.462;12.630;2022-08-06T13:50:18;25.50;61.60
16229;DHT22;8222;51.462;12.630;2022-08-06T13:52:44;25.50;63.70
16229;DHT22;8222;51.462;12.630;2022-08-06T13:55:10;25.30;63.60
16229;DHT22;8222;51.462;12.630;2022-08-06T13:57:35;25.20;63.20
16229;DHT22;8222;51.462;12.630;2022-08-06T14:00:05;25.10;62.70
16229;DHT22;8222;51.462;12.630;2022-08-06T14:02:34;25.20;63.00
16229;DHT22;8222;51.462;12.630;2022-08-06T14:05:00;25.00;62.60
16229;DHT22;8222;51.462;12.630;2022-08-06T14:07:29;24.90;62.60
16229;DHT22;8222;51.462;12.630;2022-08-06T14:09:54;24.70;63.40
16229;DHT22;8222;51.462;12.630;2022-08-06T14:12:20;24.80;63.60
16229;DHT22;8222;51.462;12.630;2022-08-06T14:14:46;24.90;62.80
16229;DHT22;8222;51.462;12.630;2022-08-06T14:17:11;24.70;61.60
16229;DHT22;8222;51.462;12.630;2022-08-06T14:19:37;24.80;61.40
16229;DHT22;8222;51.462;12.630;2022-08-06T14:22:03;24.70;62.40
16229;DHT22;8222;51.462;12.630;2022-08-06T14:24:28;24.60;62.40
16229;DHT22;8222;51.462;12.630;2022-08-06T14:26:54;24.70;62.10
16229;DHT22;8222;51.462;12.630;2022-08-06T14:29:19;24.70;62.90
16229;DHT22;8222;51.462;12.630;2022-08-06T14:31:45;24.90;60.60
16229;DHT22;8222;51.462;12.630;2022-08-06T14:34:11;25.00;61.90
16229;DHT22;8222;51.462;12.630;2022-08-06T14:36:37;24.90;61.70
16229;DHT22;8222;51.462;12.630;2022-08-06T14:39:03;24.60;62.10
16229;DHT22;8222;51.462;12.630;2022-08-06T14:41:29;24.70;62.30
16229;DHT22;8222;51.462;12.630;2022-08-06T14:44:13;24.70;62.00
16229;DHT22;8222;51.462;12.630;2022-08-06T14:46:57;24.70;62.90
16229;DHT22;8222;51.462;12.630;2022-08-06T14:49:23;24.30;61.90
16229;DHT22;8222;51.462;12.630;2022-08-06T14:51:49;24.30;62.40
16229;DHT22;8222;51.462;12.630;2022-08-06T14:54:15;24.40;61.60
16229;DHT22;8222;51.462;12.630;2022-08-06T14:56:42;24.60;61.70
16229;DHT22;8222;51.462;12.630;2022-08-06T14:59:08;24.70;62.80
16229;DHT22;8222;51.462;12.630;2022-08-06T15:01:33;24.80;62.20
16229;DHT22;8222;51.462;12.630;2022-08-06T15:03:59;24.80;61.90
16229;DHT22;8222;51.462;12.630;2022-08-06T15:06:25;25.00;62.20
16229;DHT22;8222;51.462;12.630;2022-08-06T15:08:50;25.20;61.50
16229;DHT22;8222;51.462;12.630;2022-08-06T15:11:16;25.20;61.40
16229;DHT22;8222;51.462;12.630;2022-08-06T15:13:41;25.10;61.50
16229;DHT22;8222;51.462;12.630;2022-08-06T15:16:08;25.00;61.30
16229;DHT22;8222;51.462;12.630;2022-08-06T15:18:33;25.30;61.40
16229;DHT22;8222;51.462;12.630;2022-08-06T15:20:59;25.50;60.90
16229;DHT22;8222;51.462;12.630;2022-08-06T15:23:25;25.50;60.40
16229;DHT22;8222;51.462;12.630;2022-08-06T15:25:51;25.30;59.60
16229;DHT22;8222;51.462;12.630;2022-08-06T15:28:16;25.20;59.90
16229;DHT22;8222;51.462;12.630;2022-08-06T15:30:42;25.20;59.70
16229;DHT22;8222;51.462;12.630;2022-08-06T15:33:08;25.30;59.70
16229;DHT22;8222;51.462;12.630;2022-08-06T15:35:34;25.60;59.40
16229;DHT22;8222;51.462;12.630;2022-08-06T15:38:00;25.80;58.50
16229;DHT22;8222;51.462;12.630;2022-08-06T15:40:25;26.40;58.40
16229;DHT22;8222;51.462;12.630;2022-08-06T15:42:51;26.80;57.40
16229;DHT22;8222;51.462;12.630;2022-08-06T15:45:16;26.80;56.50
16229;DHT22;8222;51.462;12.630;2022-08-06T15:47:45;27.10;56.30
16229;DHT22;8222;51.462;12.630;2022-08-06T15:50:10;26.80;55.80
16229;DHT22;8222;51.462;12.630;2022-08-06T15:52:36;26.80;56.10
16229;DHT22;8222;51.462;12.630;2022-08-06T15:55:04;26.90;55.90
16229;DHT22;8222;51.462;12.630;2022-08-06T15:57:29;27.00;56.00
16229;DHT22;8222;51.462;12.630;2022-08-06T15:59:55;27.00;54.80
16229;DHT22;8222;51.462;12.630;2022-08-06T16:02:21;27.20;54.20
16229;DHT22;8222;51.462;12.630;2022-08-06T16:04:47;27.10;54.10
16229;DHT22;8222;51.462;12.630;2022-08-06T16:07:13;27.10;53.50
16229;DHT22;8222;51.462;12.630;2022-08-06T16:09:39;27.20;53.50
16229;DHT22;8222;51.462;12.630;2022-08-06T16:12:04;27.20;53.30
16229;DHT22;8222;51.462;12.630;2022-08-06T16:14:31;27.50;53.60
16229;DHT22;8222;51.462;12.630;2022-08-06T16:16:56;27.20;53.40
16229;DHT22;8222;51.462;12.630;2022-08-06T16:19:22;27.40;53.30
16229;DHT22;8222;51.462;12.630;2022-08-06T16:21:48;27.90;52.50
16229;DHT22;8222;51.462;12.630;2022-08-06T16:24:14;28.40;52.70
16229;DHT22;8222;51.462;12.630;2022-08-06T16:26:40;28.40;52.40
16229;DHT22;8222;51.462;12.630;2022-08-06T16:29:07;28.30;51.60
16229;DHT22;8222;51.462;12.630;2022-08-06T16:31:33;28.30;51.60
16229;DHT22;8222;51.462;12.630;2022-08-06T16:33:58;28.30;52.40
16229;DHT22;8222;51.462;12.630;2022-08-06T16:36:24;28.10;50.60
16229;DHT22;8222;51.462;12.630;2022-08-06T16:38:50;28.10;49.90
16229;DHT22;8222;51.462;12.630;2022-08-06T16:41:15;28.30;50.60
16229;DHT22;8222;51.462;12.630;2022-08-06T16:43:41;28.80;50.50
16229;DHT22;8222;51.462;12.630;2022-08-06T16:46:07;29.10;50.10
16229;DHT22;8222;51.462;12.630;2022-08-06T16:48:32;29.30;49.00
16229;DHT22;8222;51.462;12.630;2022-08-06T16:50:58;29.20;49.00